Time;durP1;ratioP1;P1;durP2;ratioP2;P2;SDS_P1;SDS_P2;PMS_P1;PMS_P2;Temp;Humidity;BMP_temperature;BMP_pressure;BME280_temperature;BME280_humidity;BME280_pressure;Samples;Min_cycle;Max_cycle;Signal;HPM_P1;HPM_P2
2024/01/22 00:01:54;;;;;;;1.20;0.90;;;6.80;99.90;;;6.77;100.00;100990.78;5237815;28;20648;-47
2024/01/22 00:04:27;;;;;;;1.08;0.63;;;6.80;99.90;;;6.87;100.00;100973.16;5237916;28;20052;-46
2024/01/22 00:07:01;;;;;;;1.75;1.17;;;6.90;99.90;;;6.86;100.00;100977.47;5241841;28;20507;-47
2024/01/22 00:09:34;;;;;;;4.18;1.13;;;7.00;99.90;;;6.85;100.00;100954.06;5240438;28;20047;-46
2024/01/22 00:12:07;;;;;;;1.13;0.80;;;6.90;99.90;;;6.77;100.00;100946.75;5231999;28;20055;-47
2024/01/22 00:14:39;;;;;;;1.95;0.95;;;6.90;99.90;;;6.87;100.00;100950.72;5236362;28;20408;-46
2024/01/22 00:17:12;;;;;;;1.65;1.38;;;6.90;99.90;;;6.86;100.00;100946.34;5236787;28;20573;-47
2024/01/22 00:19:44;;;;;;;2.28;1.25;;;7.00;99.90;;;6.78;100.00;100934.69;5237511;28;20044;-47
2024/01/22 00:22:18;;;;;;;1.45;0.90;;;6.90;99.90;;;6.79;100.00;100920.94;5233326;28;20053;-46
2024/01/22 00:24:50;;;;;;;1.67;1.08;;;6.90;99.90;;;6.76;100.00;100913.88;5245875;28;20040;-46
2024/01/22 00:27:23;;;;;;;1.98;0.85;;;6.90;99.90;;;6.75;100.00;100919.88;5241730;28;20053;-48
2024/01/22 00:29:55;;;;;;;2.45;1.08;;;6.90;99.90;;;6.73;100.00;100903.38;5238265;28;20045;-46
2024/01/22 00:32:27;;;;;;;1.70;1.23;;;6.90;99.90;;;6.82;100.00;100896.88;5241976;28;20049;-47
2024/01/22 00:35:00;;;;;;;2.55;1.35;;;6.90;99.90;;;6.84;100.00;100890.94;5236159;28;20056;-47
2024/01/22 00:37:33;;;;;;;0.90;0.73;;;7.00;99.90;;;6.89;100.00;100904.16;5229663;28;20049;-46
2024/01/22 00:40:08;;;;;;;1.70;1.08;;;7.00;99.90;;;6.99;100.00;100883.09;5223523;28;20041;-46
2024/01/22 00:42:40;;;;;;;1.67;0.73;;;7.00;99.90;;;7.03;100.00;100890.19;5231885;28;20056;-46
2024/01/22 00:45:13;;;;;;;2.10;1.50;;;7.10;99.90;;;7.07;100.00;100889.53;5238755;28;20060;-47
2024/01/22 00:47:45;;;;;;;1.92;1.00;;;7.10;99.90;;;7.02;100.00;100884.13;5228841;28;20053;-47
2024/01/22 00:50:17;;;;;;;0.75;0.60;;;7.20;99.90;;;7.08;100.00;100894.78;5233587;28;20056;-46
2024/01/22 00:52:51;;;;;;;1.33;0.80;;;7.20;99.90;;;7.13;100.00;100883.78;5235586;28;20044;-46
2024/01/22 00:55:24;;;;;;;1.10;0.90;;;7.30;99.90;;;7.13;100.00;100876.88;5235194;28;20052;-46
2024/01/22 00:57:56;;;;;;;2.63;0.98;;;7.20;99.90;;;7.08;100.00;100868.88;5238069;28;20052;-46
2024/01/22 01:00:28;;;;;;;2.92;0.98;;;7.20;99.90;;;7.06;100.00;100856.66;5235977;28;20037;-47
2024/01/22 01:03:05;;;;;;;1.67;0.80;;;7.20;99.90;;;7.05;100.00;100863.56;5246184;28;20442;-47
2024/01/22 01:05:37;;;;;;;0.82;0.82;;;7.20;99.90;;;7.08;100.00;100844.66;5244393;28;20041;-46
2024/01/22 01:08:11;;;;;;;1.85;1.20;;;7.20;99.90;;;7.07;100.00;100841.19;5245609;28;20495;-46
2024/01/22 01:10:43;;;;;;;1.30;0.75;;;7.20;99.90;;;7.11;100.00;100844.81;5242658;28;20041;-46
2024/01/22 01:13:19;;;;;;;1.00;0.63;;;7.20;99.90;;;7.14;100.00;100838.88;5232552;28;20055;-46
2024/01/22 01:15:51;;;;;;;1.48;0.63;;;7.20;99.90;;;7.15;100.00;100830.28;5228051;28;20064;-46
2024/01/22 01:18:24;;;;;;;2.00;1.10;;;7.20;99.90;;;7.12;100.00;100833.63;5240720;28;20059;-46
2024/01/22 01:20:56;;;;;;;1.52;1.00;;;7.30;99.90;;;7.14;100.00;100834.59;5234783;28;20037;-47
2024/01/22 01:23:30;;;;;;;2.60;0.88;;;7.30;99.90;;;7.21;100.00;100831.47;5244129;28;20059;-47
2024/01/22 01:26:02;;;;;;;0.98;0.85;;;7.40;99.90;;;7.44;100.00;100830.00;5225834;28;20048;-47
2024/01/22 01:28:35;;;;;;;1.70;0.60;;;7.50;99.90;;;7.46;100.00;100835.25;5245129;28;20519;-47
2024/01/22 01:31:07;;;;;;;0.60;0.60;;;7.60;99.90;;;7.43;100.00;100823.03;5222772;28;20045;-47
2024/01/22 01:33:40;;;;;;;1.10;0.68;;;7.60;99.90;;;7.39;100.00;100800.38;5246038;28;20542;-47
2024/01/22 01:36:12;;;;;;;1.00;0.80;;;7.50;99.90;;;7.44;100.00;100792.81;5236929;28;20044;-46
2024/01/22 01:38:46;;;;;;;2.10;0.82;;;7.60;99.90;;;7.50;100.00;100783.63;5238004;28;20486;-46
2024/01/22 01:41:18;;;;;;;1.60;0.65;;;7.60;99.90;;;7.54;100.00;100789.81;5230102;28;20037;-46
2024/01/22 01:43:51;;;;;;;1.27;0.65;;;7.70;99.90;;;7.56;100.00;100765.75;5240135;28;20435;-46
2024/01/22 01:46:23;;;;;;;2.53;0.90;;;7.70;99.90;;;7.57;100.00;100782.19;5241162;28;20048;-47
2024/01/22 01:48:56;;;;;;;1.70;0.65;;;7.70;99.90;;;7.53;100.00;100752.63;5229331;28;20419;-46
2024/01/22 01:51:32;;;;;;;2.05;0.57;;;7.70;99.90;;;7.55;100.00;100737.13;5239454;28;20244;-47
2024/01/22 01:54:08;;;;;;;0.70;0.70;;;7.70;99.90;;;7.60;100.00;100712.28;5240623;28;20036;-46
2024/01/22 01:56:41;;;;;;;1.55;0.82;;;7.70;99.90;;;7.66;100.00;100733.31;5225781;28;20045;-47
2024/01/22 01:59:17;;;;;;;3.00;0.85;;;7.70;99.90;;;7.65;100.00;100752.31;5221561;28;20049;-47
2024/01/22 02:01:49;;;;;;;0.95;0.75;;;7.80;99.90;;;7.74;100.00;100770.88;5235656;28;20041;-47
2024/01/22 02:04:22;;;;;;;1.83;1.00;;;7.80;99.90;;;7.71;100.00;100762.97;5238852;28;20511;-46
2024/01/22 02:06:54;;;;;;;5.70;0.90;;;7.80;99.90;;;7.82;100.00;100756.56;5239784;28;20408;-46
2024/01/22 02:09:49;;;;;;;1.48;0.85;;;7.90;99.90;;;7.75;100.00;100743.22;5242809;28;20051;-47
2024/01/22 02:12:22;;;;;;;0.60;0.50;;;7.80;99.90;;;7.74;100.00;100752.69;5224290;28;20049;-46
2024/01/22 02:14:54;;;;;;;0.60;0.60;;;7.90;99.90;;;7.67;100.00;100744.56;5237115;28;20049;-47
2024/01/22 02:17:27;;;;;;;1.25;0.75;;;7.80;99.90;;;7.66;100.00;100733.31;5235258;28;20075;-47
2024/01/22 02:19:59;;;;;;;1.25;0.63;;;7.80;99.90;;;7.68;100.00;100723.88;5240657;28;20049;-46
2024/01/22 02:22:31;;;;;;;0.70;0.70;;;7.80;99.90;;;7.67;100.00;100719.50;5228924;28;20152;-47
2024/01/22 02:25:07;;;;;;;1.23;0.80;;;7.80;99.90;;;7.87;100.00;100703.13;5238381;28;20411;-47
2024/01/22 02:27:39;;;;;;;1.13;0.90;;;7.90;99.90;;;7.94;100.00;100693.00;5234708;28;20530;-47
2024/01/22 02:30:13;;;;;;;1.40;0.75;;;8.00;99.90;;;7.91;100.00;100704.16;5230159;28;20098;-47
2024/01/22 02:32:45;;;;;;;2.85;0.90;;;8.00;99.90;;;7.91;100.00;100709.34;5237723;28;20048;-46
2024/01/22 02:35:18;;;;;;;2.63;0.90;;;8.00;99.90;;;7.85;100.00;100714.28;5242536;28;20523;-56
2024/01/22 02:37:50;;;;;;;0.73;0.63;;;8.00;99.90;;;7.89;100.00;100705.81;5247698;28;20044;-46
2024/01/22 02:40:24;;;;;;;1.45;1.00;;;8.00;99.90;;;8.03;100.00;100699.50;5237617;28;20412;-46
2024/01/22 02:42:56;;;;;;;1.20;0.95;;;8.10;99.90;;;7.99;100.00;100714.88;5239667;28;20060;-47
2024/01/22 02:45:29;;;;;;;0.85;0.63;;;8.00;99.90;;;8.01;100.00;100745.25;5226688;28;20621;-47
2024/01/22 02:48:01;;;;;;;1.67;1.00;;;8.10;99.90;;;7.95;100.00;100752.78;5246563;28;20438;-47
2024/01/22 02:50:33;;;;;;;1.27;1.02;;;8.00;99.90;;;7.93;100.00;100733.66;5246797;28;20048;-47
2024/01/22 02:53:06;;;;;;;1.10;0.90;;;8.10;99.90;;;7.99;100.00;100701.91;5241852;28;20052;-46
2024/01/22 02:55:43;;;;;;;0.98;0.65;;;8.00;99.90;;;7.97;100.00;100677.59;5229752;28;20183;-47
2024/01/22 02:58:15;;;;;;;1.40;0.77;;;8.10;99.90;;;7.94;100.00;100667.06;5234233;28;20511;-47
2024/01/22 03:00:48;;;;;;;0.80;0.55;;;8.00;99.90;;;7.96;100.00;100652.47;5233065;28;20079;-48
2024/01/22 03:03:20;;;;;;;1.42;0.90;;;8.00;99.90;;;7.96;100.00;100623.91;5244315;28;20064;-47
2024/01/22 03:05:52;;;;;;;2.55;1.00;;;8.00;99.90;;;7.88;100.00;100606.28;5243486;28;20511;-47
2024/01/22 03:08:25;;;;;;;3.28;1.00;;;8.00;99.90;;;7.86;100.00;100592.34;5233136;28;20434;-46
2024/01/22 03:10:58;;;;;;;2.75;1.00;;;8.00;99.90;;;7.95;100.00;100580.56;5243230;28;20474;-47
2024/01/22 03:13:31;;;;;;;3.13;1.00;;;8.00;99.90;;;7.96;100.00;100569.41;5240931;28;20040;-46
2024/01/22 03:16:04;;;;;;;1.98;1.00;;;8.00;99.90;;;8.04;100.00;100592.25;5227868;28;20048;-46
2024/01/22 03:18:36;;;;;;;0.45;0.45;;;8.10;99.90;;;8.16;100.00;100582.38;5242789;28;20049;-46
2024/01/22 03:21:08;;;;;;;1.30;0.80;;;8.20;99.90;;;8.26;100.00;100575.81;5238592;28;20047;-46
2024/01/22 03:23:43;;;;;;;2.83;0.98;;;8.30;99.90;;;8.24;100.00;100587.88;5238465;28;20052;-47
2024/01/22 03:26:23;;;;;;;0.65;0.65;;;8.30;99.90;;;8.32;100.00;100589.06;5240771;28;20118;-47
2024/01/22 03:28:56;;;;;;;1.15;0.95;;;8.30;99.90;;;8.35;100.00;100594.44;5240827;28;20055;-46
2024/01/22 03:31:32;;;;;;;0.60;0.60;;;8.40;99.90;;;8.36;100.00;100606.59;5229335;28;20420;-46
2024/01/22 03:34:04;;;;;;;3.13;0.75;;;8.40;99.90;;;8.32;100.00;100604.66;5237459;28;20430;-48
2024/01/22 03:36:37;;;;;;;0.63;0.63;;;8.40;99.90;;;8.32;100.00;100594.25;5245276;28;20056;-46
2024/01/22 03:39:09;;;;;;;1.23;1.08;;;8.40;99.90;;;8.41;100.00;100602.47;5239546;28;20049;-46
2024/01/22 03:41:43;;;;;;;0.63;0.52;;;8.40;99.90;;;8.33;100.00;100596.03;5227811;28;20087;-47
2024/01/22 03:44:15;;;;;;;0.85;0.70;;;8.40;99.90;;;8.34;100.00;100591.72;5230991;28;20439;-48
2024/01/22 03:46:48;;;;;;;0.98;0.63;;;8.40;99.90;;;8.30;100.00;100595.91;5246579;28;20041;-46
2024/01/22 03:49:21;;;;;;;0.73;0.70;;;8.40;99.90;;;8.36;100.00;100610.91;5240317;28;20068;-47
2024/01/22 03:51:53;;;;;;;1.45;0.50;;;8.40;99.90;;;8.29;100.00;100614.03;5233991;28;20045;-47
2024/01/22 03:54:25;;;;;;;1.27;0.70;;;8.30;99.90;;;8.31;100.00;100613.25;5243892;28;20041;-46
2024/01/22 03:57:04;;;;;;;1.55;0.70;;;8.40;99.90;;;8.27;100.00;100615.66;5238644;28;20553;-47
2024/01/22 03:59:37;;;;;;;0.50;0.50;;;8.30;99.90;;;8.22;100.00;100607.72;5237628;28;20063;-47
2024/01/22 04:02:10;;;;;;;2.50;0.68;;;8.30;99.90;;;8.30;100.00;100611.50;5233853;28;20044;-46
2024/01/22 04:04:43;;;;;;;0.77;0.70;;;8.40;99.90;;;8.31;100.00;100618.47;5241411;28;20118;-47
2024/01/22 04:07:15;;;;;;;2.38;0.63;;;8.40;99.90;;;8.36;100.00;100596.19;5232498;28;20033;-47
2024/01/22 04:09:51;;;;;;;0.50;0.50;;;8.40;99.90;;;8.28;100.00;100587.19;5236985;28;20048;-46
2024/01/22 04:12:24;;;;;;;1.70;0.60;;;8.40;99.90;;;8.22;100.00;100586.94;5242624;28;20047;-47
2024/01/22 04:14:57;;;;;;;1.27;0.73;;;8.30;99.90;;;8.20;100.00;100562.59;5241534;28;20139;-47
2024/01/22 04:17:29;;;;;;;0.60;0.60;;;8.30;99.90;;;8.21;100.00;100558.28;5236384;28;20056;-48
2024/01/22 04:20:03;;;;;;;0.40;0.40;;;8.30;99.90;;;8.29;100.00;100562.97;5238596;28;20048;-46
2024/01/22 04:22:35;;;;;;;0.98;0.60;;;8.30;99.90;;;8.26;100.00;100547.25;5235521;28;20139;-46
2024/01/22 04:25:08;;;;;;;0.60;0.60;;;8.30;99.90;;;8.31;100.00;100550.06;5239847;28;20503;-46
2024/01/22 04:27:42;;;;;;;0.98;0.70;;;8.40;99.90;;;8.26;100.00;100530.78;5242904;28;20056;-46
2024/01/22 04:30:15;;;;;;;0.32;0.32;;;8.40;99.90;;;8.25;100.00;100522.13;5226823;28;20041;-46
2024/01/22 04:32:47;;;;;;;0.85;0.50;;;8.40;99.90;;;8.25;100.00;100513.44;5240051;28;20523;-47
2024/01/22 04:35:20;;;;;;;1.02;0.40;;;8.30;99.90;;;8.24;100.00;100504.78;5229457;28;20056;-46
2024/01/22 04:37:53;;;;;;;0.93;0.57;;;8.30;99.90;;;8.30;100.00;100511.94;5225114;28;20125;-47
2024/01/22 04:40:25;;;;;;;1.15;0.55;;;8.30;99.90;;;8.38;100.00;100495.84;5234757;28;20518;-46
2024/01/22 04:42:59;;;;;;;0.45;0.45;;;8.40;99.90;;;8.32;100.00;100482.59;5226569;28;20060;-46
2024/01/22 04:45:34;;;;;;;0.40;0.40;;;8.40;99.90;;;8.32;100.00;100490.38;5232290;28;20414;-47
2024/01/22 04:48:07;;;;;;;0.60;0.60;;;8.40;99.90;;;8.25;100.00;100482.28;5241398;28;20049;-47
2024/01/22 04:50:39;;;;;;;0.73;0.40;;;8.40;99.90;;;8.26;100.00;100473.66;5245810;28;20064;-47
2024/01/22 04:53:12;;;;;;;0.40;0.40;;;8.30;99.90;;;8.25;100.00;100464.13;5235075;28;20056;-47
2024/01/22 04:55:44;;;;;;;0.57;0.43;;;8.30;99.90;;;8.26;100.00;100448.59;5239342;28;20044;-48
2024/01/22 04:58:18;;;;;;;1.17;0.50;;;8.30;99.90;;;8.21;100.00;100441.44;5242941;28;20059;-47
2024/01/22 05:00:50;;;;;;;0.50;0.45;;;8.30;99.90;;;8.25;100.00;100441.63;5238430;28;20041;-46
2024/01/22 05:03:23;;;;;;;0.38;0.38;;;8.30;99.90;;;8.20;100.00;100448.34;5234141;28;20041;-47
2024/01/22 05:05:59;;;;;;;0.55;0.43;;;8.30;99.90;;;8.21;100.00;100429.34;5224976;28;20048;-47
2024/01/22 05:08:31;;;;;;;0.60;0.60;;;8.30;99.90;;;8.17;100.00;100427.47;5238452;28;20052;-48
2024/01/22 05:11:04;;;;;;;0.90;0.80;;;8.30;99.90;;;8.20;100.00;100422.38;5225665;28;20534;-46
2024/01/22 05:13:38;;;;;;;0.47;0.40;;;8.30;99.90;;;8.20;100.00;100426.69;5235912;28;20053;-47
2024/01/22 05:16:10;;;;;;;0.57;0.57;;;8.30;99.90;;;8.17;100.00;100427.47;5224056;28;20052;-47
2024/01/22 05:18:42;;;;;;;1.30;0.63;;;8.30;99.90;;;8.14;100.00;100423.03;5221166;28;20459;-47
2024/01/22 05:21:15;;;;;;;1.15;0.43;;;8.30;99.90;;;8.16;100.00;100415.31;5233271;28;20048;-47
2024/01/22 05:23:47;;;;;;;0.40;0.40;;;8.20;99.90;;;8.15;100.00;100423.94;5234368;28;20048;-47
2024/01/22 05:26:20;;;;;;;0.65;0.63;;;8.20;99.90;;;8.11;100.00;100411.66;5235313;28;20092;-46
2024/01/22 05:28:54;;;;;;;0.77;0.40;;;8.20;99.90;;;8.16;100.00;100394.56;5224908;28;20045;-47
2024/01/22 05:31:26;;;;;;;0.93;0.43;;;8.30;99.90;;;8.15;100.00;100398.84;5238344;28;20037;-46
2024/01/22 05:33:58;;;;;;;0.45;0.43;;;8.30;99.90;;;8.28;100.00;100400.22;5229631;28;20052;-46
2024/01/22 05:36:31;;;;;;;0.60;0.60;;;8.30;99.90;;;8.30;100.00;100398.53;5232673;28;20371;-46
2024/01/22 05:39:04;;;;;;;0.55;0.40;;;8.40;99.90;;;8.41;100.00;100402.47;5244963;28;20048;-47
2024/01/22 05:41:37;;;;;;;0.43;0.30;;;8.50;99.90;;;8.35;100.00;100394.44;5238307;28;20044;-47
2024/01/22 05:44:11;;;;;;;0.30;0.30;;;8.40;99.90;;;8.40;100.00;100398.06;5238766;28;20060;-46
2024/01/22 05:46:43;;;;;;;1.88;0.32;;;8.50;99.90;;;8.33;100.00;100398.66;5235204;28;20044;-47
2024/01/22 05:49:16;;;;;;;0.57;0.40;;;8.40;99.90;;;8.30;100.00;100398.53;5227628;28;20045;-47
2024/01/22 05:51:48;;;;;;;0.45;0.45;;;8.40;99.90;;;8.31;100.00;100400.31;5242573;28;20615;-46
2024/01/22 05:54:21;;;;;;;0.40;0.40;;;8.40;99.90;;;8.35;100.00;100407.44;5230161;28;20049;-48
2024/01/22 05:56:53;;;;;;;0.40;0.30;;;8.40;99.90;;;8.35;100.00;100404.84;5234390;28;20511;-47
2024/01/22 05:59:27;;;;;;;1.23;0.57;;;8.50;99.90;;;8.39;100.00;100414.50;5243472;28;20126;-47
2024/01/22 06:02:00;;;;;;;0.50;0.35;;;8.50;99.90;;;8.44;100.00;100414.69;5228685;28;20045;-47
2024/01/22 06:04:33;;;;;;;1.55;0.60;;;8.50;99.90;;;8.45;100.00;100415.56;5222680;28;20041;-46
2024/01/22 06:07:05;;;;;;;0.70;0.60;;;8.60;99.90;;;8.47;100.00;100421.69;5229898;28;20041;-46
2024/01/22 06:09:39;;;;;;;0.57;0.57;;;8.60;99.90;;;8.46;100.00;100419.91;5227508;28;20052;-46
2024/01/22 06:12:12;;;;;;;4.38;0.70;;;8.60;99.90;;;8.46;100.00;100404.34;5223409;28;20144;-46
2024/01/22 06:14:46;;;;;;;0.65;0.52;;;8.60;99.90;;;8.48;100.00;100397.50;5241461;28;20585;-47
2024/01/22 06:17:20;;;;;;;0.85;0.75;;;8.60;99.90;;;8.50;100.00;100390.66;5230568;28;20041;-47
2024/01/22 06:19:52;;;;;;;0.50;0.50;;;8.60;99.90;;;8.51;100.00;100402.81;5236884;28;20053;-46
2024/01/22 06:22:25;;;;;;;0.40;0.40;;;8.60;99.90;;;8.52;100.00;100405.44;5241043;28;20048;-47
2024/01/22 06:24:57;;;;;;;1.27;0.55;;;8.60;99.90;;;8.53;100.00;100412.41;5232702;28;20053;-47
2024/01/22 06:27:29;;;;;;;0.75;0.40;;;8.60;99.90;;;8.56;100.00;100409.06;5241922;28;20041;-46
2024/01/22 06:30:09;;;;;;;2.13;0.50;;;8.70;99.90;;;8.57;100.00;100400.44;5232807;28;20079;-46
2024/01/22 06:32:43;;;;;;;0.35;0.35;;;8.70;99.90;;;8.58;100.00;100407.38;5231084;28;20525;-47
2024/01/22 06:35:16;;;;;;;0.52;0.40;;;8.70;99.90;;;8.64;100.00;100410.22;5245347;28;20071;-47
2024/01/22 06:37:48;;;;;;;0.40;0.40;;;8.70;99.90;;;8.67;100.00;100399.91;5249471;28;20412;-46
2024/01/22 06:40:21;;;;;;;1.48;0.70;;;8.80;99.90;;;8.69;100.00;100406.06;5242312;28;20037;-47
2024/01/22 06:42:54;;;;;;;0.60;0.40;;;8.80;99.90;;;8.74;100.00;100406.22;5223701;28;20045;-48
2024/01/22 06:45:28;;;;;;;0.93;0.70;;;8.80;99.90;;;8.79;100.00;100415.06;5246683;28;20363;-47
2024/01/22 06:48:04;;;;;;;1.27;0.50;;;8.90;99.90;;;8.82;100.00;100423.88;5240122;28;20060;-46
2024/01/22 06:50:37;;;;;;;0.50;0.40;;;8.90;99.90;;;8.85;100.00;100416.16;5243329;28;20056;-46
2024/01/22 06:53:09;;;;;;;0.35;0.35;;;8.90;99.90;;;8.86;100.00;100417.94;5238378;28;20132;-47
2024/01/22 06:55:41;;;;;;;0.22;0.22;;;9.00;99.90;;;8.93;100.00;100422.56;5243251;28;20052;-46
2024/01/22 06:58:14;;;;;;;1.10;0.40;;;9.00;99.90;;;8.93;100.00;100419.94;5241435;28;20343;-46
2024/01/22 07:00:48;;;;;;;0.32;0.30;;;9.00;99.90;;;8.97;100.00;100400.13;5234882;28;20393;-45
2024/01/22 07:03:21;;;;;;;0.38;0.35;;;9.10;99.90;;;8.98;100.00;100407.97;5240538;28;20530;-46
2024/01/22 07:05:56;;;;;;;0.82;0.50;;;9.00;99.90;;;9.00;100.00;100409.75;5238786;28;20068;-45
2024/01/22 07:08:29;;;;;;;1.50;0.40;;;9.10;99.90;;;9.04;100.00;100396.91;5234129;28;20091;-45
2024/01/22 07:11:01;;;;;;;0.57;0.30;;;9.10;99.90;;;9.02;100.00;100413.28;5234300;28;20736;-45
2024/01/22 07:13:33;;;;;;;0.73;0.50;;;9.10;99.90;;;8.98;100.00;100401.88;5243001;28;20055;-45
2024/01/22 07:16:11;;;;;;;0.32;0.32;;;9.10;99.90;;;8.97;100.00;100390.63;5226824;28;20408;-46
2024/01/22 07:18:44;;;;;;;0.63;0.50;;;9.10;99.90;;;9.01;100.00;100393.34;5236455;28;20057;-46
2024/01/22 07:21:17;;;;;;;0.22;0.22;;;9.10;99.90;;;9.00;100.00;100387.25;5241134;28;20483;-46
2024/01/22 07:23:49;;;;;;;0.40;0.40;;;9.10;99.90;;;8.96;100.00;100404.44;5227002;28;20132;-47
2024/01/22 07:26:22;;;;;;;0.40;0.40;;;9.10;99.90;;;8.96;100.00;100399.25;5241804;28;20495;-46
2024/01/22 07:28:54;;;;;;;0.90;0.40;;;9.10;99.90;;;8.97;100.00;100405.31;5255197;28;20535;-46
2024/01/22 07:31:28;;;;;;;0.88;0.50;;;9.10;99.90;;;8.94;100.00;100415.63;5241310;28;20045;-46
2024/01/22 07:34:03;;;;;;;0.45;0.40;;;9.10;99.90;;;8.92;100.00;100399.97;5257241;28;20064;-45
2024/01/22 07:36:35;;;;;;;0.73;0.50;;;9.10;99.90;;;8.93;100.00;100419.94;5236963;28;20585;-46
2024/01/22 07:39:08;;;;;;;2.10;0.60;;;9.10;99.90;;;8.94;100.00;100411.31;5250141;28;20044;-45
2024/01/22 07:41:40;;;;;;;0.40;0.40;;;9.10;99.90;;;8.94;100.00;100411.31;5239069;28;20045;-47
2024/01/22 07:44:15;;;;;;;1.17;0.95;;;9.10;99.90;;;8.96;100.00;100404.44;5250901;28;20051;-46
2024/01/22 07:46:50;;;;;;;0.47;0.47;;;9.10;99.90;;;8.97;100.00;100421.81;5248701;28;20057;-46
2024/01/22 07:49:23;;;;;;;1.98;0.40;;;9.10;99.90;;;9.00;100.00;100420.13;5242113;28;20045;-46
2024/01/22 07:51:56;;;;;;;1.25;0.50;;;9.10;99.90;;;9.00;100.00;100415.84;5236544;28;20416;-46
2024/01/22 07:54:28;;;;;;;1.92;0.70;;;9.10;99.90;;;8.97;100.00;100401.00;5244762;28;20048;-46
2024/01/22 07:57:00;;;;;;;0.82;0.82;;;9.10;99.90;;;8.93;100.00;100412.16;5235503;28;20503;-46
2024/01/22 07:59:33;;;;;;;2.55;0.50;;;9.10;99.90;;;8.93;100.00;100432.94;5245947;28;20554;-46
2024/01/22 08:02:07;;;;;;;0.40;0.40;;;9.00;99.90;;;8.97;100.00;100419.22;5237717;28;20415;-46
2024/01/22 08:04:40;;;;;;;0.43;0.43;;;9.10;99.90;;;8.99;100.00;100432.25;5237809;28;20605;-46
2024/01/22 08:07:13;;;;;;;1.33;0.40;;;9.10;99.90;;;8.96;100.00;100440.84;5234739;28;20049;-47
2024/01/22 08:09:45;;;;;;;0.30;0.30;;;9.00;99.90;;;8.95;100.00;100435.59;5230203;28;20048;-47
2024/01/22 08:12:18;;;;;;;0.98;0.47;;;9.00;99.90;;;8.93;100.00;100435.53;5217998;28;20039;-47
2024/01/22 08:14:50;;;;;;;0.50;0.40;;;9.00;99.90;;;8.95;100.00;100433.00;5247002;28;20036;-46
2024/01/22 08:17:24;;;;;;;0.50;0.35;;;9.10;99.90;;;8.97;100.00;100441.72;5259327;28;20074;-44
2024/01/22 08:19:56;;;;;;;0.30;0.30;;;9.10;99.90;;;8.96;100.00;100443.44;5260142;28;20063;-47
2024/01/22 08:22:28;;;;;;;0.50;0.30;;;9.00;99.90;;;9.55;100.00;100451.53;5258594;28;20037;-46
2024/01/22 08:25:01;;;;;;;0.90;0.52;;;9.50;99.90;;;9.70;100.00;100443.34;5251430;28;20130;-45
2024/01/22 08:27:33;;;;;;;0.50;0.38;;;9.70;99.90;;;9.67;100.00;100432.84;5262441;28;20418;-45
2024/01/22 08:30:10;;;;;;;1.13;0.57;;;9.80;99.90;;;9.57;100.00;100441.16;5268097;28;20063;-46
2024/01/22 08:32:44;;;;;;;1.00;0.35;;;9.70;99.90;;;9.48;100.00;100447.84;5256184;28;20059;-46
2024/01/22 08:35:17;;;;;;;0.80;0.40;;;9.60;99.90;;;9.42;100.00;100439.81;5268719;28;20521;-46
2024/01/22 08:37:53;;;;;;;1.15;0.30;;;9.60;99.90;;;9.37;100.00;100438.78;5254896;28;20549;-46
2024/01/22 08:40:26;;;;;;;0.90;0.50;;;9.50;99.90;;;9.61;100.00;100430.03;5268305;28;20052;-46
2024/01/22 08:42:59;;;;;;;2.65;0.50;;;9.70;99.90;;;9.87;100.00;100430.88;5255714;28;20063;-46
2024/01/22 08:45:33;;;;;;;0.57;0.30;;;9.90;99.90;;;9.87;100.00;100426.56;5260784;28;20139;-45
2024/01/22 08:48:10;;;;;;;0.40;0.40;;;10.00;99.90;;;9.82;100.00;100422.91;5275139;28;20069;-45
2024/01/22 08:50:43;;;;;;;0.30;0.30;;;9.90;99.90;;;9.79;100.00;100428.03;5252895;28;20058;-45
2024/01/22 08:53:15;;;;;;;0.20;0.20;;;9.90;99.90;;;9.86;100.00;100432.59;5256442;28;20380;-45
2024/01/22 08:55:48;;;;;;;0.50;0.25;;;9.90;99.90;;;9.95;100.00;100440.69;5255858;28;20419;-46
2024/01/22 08:58:21;;;;;;;1.23;0.32;;;9.90;99.90;;;9.98;100.00;100440.81;5259609;28;20040;-45
2024/01/22 09:00:53;;;;;;;0.88;0.63;;;10.00;99.90;;;10.10;100.00;100439.41;5262260;28;20139;-45
2024/01/22 09:03:27;;;;;;;0.40;0.20;;;10.00;99.90;;;10.24;100.00;100418.19;5254806;28;20037;-46
2024/01/22 09:05:59;;;;;;;0.85;0.30;;;10.20;99.90;;;10.28;100.00;100422.63;5266377;28;20063;-46
2024/01/22 09:08:33;;;;;;;1.13;0.30;;;10.20;99.90;;;10.32;100.00;100410.59;5258236;28;20067;-45
2024/01/22 09:11:05;;;;;;;0.65;0.30;;;10.30;99.90;;;10.32;100.00;100405.41;5258369;28;20040;-45
2024/01/22 09:13:38;;;;;;;0.28;0.25;;;10.30;99.90;;;10.36;100.00;100412.44;5253898;28;20101;-46
2024/01/22 09:16:14;;;;;;;1.45;0.60;;;10.30;99.90;;;10.41;100.00;100416.06;5253762;28;20144;-45
2024/01/22 09:18:48;;;;;;;0.22;0.22;;;10.40;99.90;;;10.48;100.00;100414.53;5262389;28;20581;-45
2024/01/22 09:21:20;;;;;;;0.88;0.35;;;10.40;99.90;;;10.51;100.00;100407.69;5255254;28;20512;-45
2024/01/22 09:23:53;;;;;;;0.65;0.50;;;10.40;99.90;;;10.67;100.00;100403.78;5257251;28;20132;-46
2024/01/22 09:26:26;;;;;;;0.65;0.47;;;10.60;99.90;;;10.76;100.00;100403.19;5256021;28;20052;-45
2024/01/22 09:28:58;;;;;;;0.98;0.47;;;10.60;99.90;;;10.72;100.00;100398.72;5255002;28;20110;-45
2024/01/22 09:31:31;;;;;;;2.53;0.50;;;10.70;99.90;;;10.70;100.00;100390.88;5254136;28;20055;-45
2024/01/22 09:34:04;;;;;;;2.10;0.90;;;10.70;99.90;;;10.69;100.00;100401.22;5260543;28;20044;-44
2024/01/22 09:36:37;;;;;;;1.48;0.70;;;10.60;99.90;;;10.69;100.00;100396.88;5272559;28;20510;-45
2024/01/22 09:39:09;;;;;;;0.63;0.40;;;10.60;99.90;;;10.74;100.00;100400.50;5251657;28;20040;-45
2024/01/22 09:41:42;;;;;;;2.03;0.55;;;10.60;99.90;;;10.83;100.00;100406.00;5260218;28;20056;-46
2024/01/22 09:44:15;;;;;;;2.15;0.45;;;10.70;99.90;;;10.90;100.00;100401.84;5250749;28;20243;-45
2024/01/22 09:46:48;;;;;;;1.83;0.52;;;10.70;99.90;;;11.02;100.00;100407.38;5266110;28;20060;-47
2024/01/22 09:49:23;;;;;;;0.38;0.32;;;10.90;99.90;;;11.09;100.00;100413.66;5259901;28;20401;-45
2024/01/22 09:51:55;;;;;;;0.13;0.13;;;10.90;99.90;;;11.12;100.00;100430.25;5257445;28;20562;-46
2024/01/22 09:54:31;;;;;;;1.13;0.55;;;11.00;99.90;;;11.14;100.00;100418.13;5255303;28;20048;-45
2024/01/22 09:57:08;;;;;;;2.60;0.30;;;11.00;99.90;;;11.16;100.00;100419.91;5260438;28;20048;-47
2024/01/22 09:59:42;;;;;;;0.82;0.45;;;11.00;99.90;;;11.12;100.00;100417.19;5263710;28;20139;-48
2024/01/22 10:02:16;;;;;;;1.25;0.75;;;11.10;99.90;;;11.09;100.00;100413.66;5259209;28;20051;-47
2024/01/22 10:04:51;;;;;;;0.95;0.50;;;11.10;99.90;;;11.06;100.00;100424.88;5264888;28;20083;-46
2024/01/22 10:07:23;;;;;;;0.60;0.60;;;11.10;99.90;;;11.10;100.00;100416.28;5262644;28;20040;-45
2024/01/22 10:09:56;;;;;;;0.57;0.50;;;11.10;99.90;;;11.24;100.00;100418.38;5259131;28;20052;-46
2024/01/22 10:12:28;;;;;;;2.40;0.57;;;11.10;99.90;;;11.38;100.00;100411.78;5261795;28;20044;-46
2024/01/22 10:15:14;;;;;;;0.93;0.30;;;11.30;99.90;;;11.32;100.00;100414.22;5258236;28;20105;-45
2024/01/22 10:17:46;;;;;;;0.28;0.28;;;11.30;99.90;;;11.35;100.00;100415.22;5233804;28;20055;-47
2024/01/22 10:20:23;;;;;;;0.10;0.10;;;11.30;99.90;;;11.26;100.00;100420.16;5150199;28;20044;-45
2024/01/22 10:23:01;;;;;;;0.20;0.20;;;11.20;99.90;;;11.31;100.00;100404.66;5248956;28;20053;-45
2024/01/22 10:25:34;;;;;;;0.20;0.20;;;11.30;99.90;;;11.27;100.00;100408.88;5237583;28;20118;-47
2024/01/22 10:28:11;;;;;;;0.40;0.30;;;11.20;99.90;;;11.23;100.00;100417.50;5238781;28;20419;-45
2024/01/22 10:30:45;;;;;;;0.10;0.10;;;11.20;99.90;;;11.30;100.00;100410.72;5242446;28;20048;-46
2024/01/22 10:33:20;;;;;;;0.32;0.32;;;11.20;99.90;;;11.26;100.00;100411.47;5240075;28;20044;-46
2024/01/22 10:35:53;;;;;;;0.30;0.30;;;11.20;99.90;;;11.19;100.00;100407.81;5251714;28;20435;-45
2024/01/22 10:38:26;;;;;;;0.20;0.20;;;11.20;99.90;;;11.12;100.00;100398.94;5246622;28;20045;-46
2024/01/22 10:40:58;;;;;;;0.20;0.20;;;11.10;99.90;;;11.14;100.00;100385.94;5237325;28;20077;-45
2024/01/22 10:43:30;;;;;;;0.50;0.40;;;11.10;99.90;;;11.13;100.00;100379.84;5239803;28;20052;-46